sensor_id;sensor_type;location;lat;lon;timestamp;P1;durP1;ratioP1;P2;durP2;ratioP2
41875;SDS011;27555;50.808;4.402;2023-05-08T00:01:13;14.80;;;10.40;;
41875;SDS011;27555;50.808;4.402;2023-05-08T00:03:40;15.15;;;10.32;;
41875;SDS011;27555;50.808;4.402;2023-05-08T00:06:06;19.98;;;11.50;;
41875;SDS011;27555;50.808;4.402;2023-05-08T00:08:32;15.65;;;10.07;;
41875;SDS011;27555;50.808;4.402;2023-05-08T00:10:57;15.25;;;11.52;;
41875;SDS011;27555;50.808;4.402;2023-05-08T00:13:23;15.70;;;11.63;;
41875;SDS011;27555;50.808;4.402;2023-05-08T00:15:49;14.25;;;11.30;;
41875;SDS011;27555;50.808;4.402;2023-05-08T00:18:14;19.17;;;12.48;;
41875;SDS011;27555;50.808;4.402;2023-05-08T00:20:40;21.20;;;11.38;;
41875;SDS011;27555;50.808;4.402;2023-05-08T00:23:06;19.70;;;12.00;;
41875;SDS011;27555;50.808;4.402;2023-05-08T00:25:32;22.27;;;13.18;;
41875;SDS011;27555;50.808;4.402;2023-05-08T00:27:58;19.02;;;12.05;;
41875;SDS011;27555;50.808;4.402;2023-05-08T00:30:24;19.73;;;12.02;;
41875;SDS011;27555;50.808;4.402;2023-05-08T00:32:50;28.23;;;15.02;;
41875;SDS011;27555;50.808;4.402;2023-05-08T00:35:16;23.25;;;15.98;;
41875;SDS011;27555;50.808;4.402;2023-05-08T00:37:41;28.08;;;16.92;;
41875;SDS011;27555;50.808;4.402;2023-05-08T00:40:08;22.58;;;17.00;;
41875;SDS011;27555;50.808;4.402;2023-05-08T00:42:34;23.50;;;15.38;;
41875;SDS011;27555;50.808;4.402;2023-05-08T00:45:00;25.83;;;16.77;;
41875;SDS011;27555;50.808;4.402;2023-05-08T00:47:27;25.20;;;18.58;;
41875;SDS011;27555;50.808;4.402;2023-05-08T00:49:53;27.08;;;18.33;;
41875;SDS011;27555;50.808;4.402;2023-05-08T00:52:19;29.60;;;19.17;;
41875;SDS011;27555;50.808;4.402;2023-05-08T00:54:44;27.55;;;18.05;;
41875;SDS011;27555;50.808;4.402;2023-05-08T00:57:11;32.85;;;19.73;;
41875;SDS011;27555;50.808;4.402;2023-05-08T00:59:38;26.80;;;17.70;;
41875;SDS011;27555;50.808;4.402;2023-05-08T01:02:05;30.17;;;19.90;;
41875;SDS011;27555;50.808;4.402;2023-05-08T01:04:32;30.23;;;20.05;;
41875;SDS011;27555;50.808;4.402;2023-05-08T01:07:00;27.98;;;18.42;;
41875;SDS011;27555;50.808;4.402;2023-05-08T01:09:27;32.42;;;19.48;;
41875;SDS011;27555;50.808;4.402;2023-05-08T01:12:02;29.13;;;18.75;;
41875;SDS011;27555;50.808;4.402;2023-05-08T01:14:53;26.48;;;17.63;;
41875;SDS011;27555;50.808;4.402;2023-05-08T01:37:04;29.05;;;18.02;;
41875;SDS011;27555;50.808;4.402;2023-05-08T01:39:41;29.50;;;18.55;;
41875;SDS011;27555;50.808;4.402;2023-05-08T01:42:23;33.60;;;18.48;;
41875;SDS011;27555;50.808;4.402;2023-05-08T01:45:05;30.80;;;18.65;;
41875;SDS011;27555;50.808;4.402;2023-05-08T01:47:36;30.20;;;16.92;;
41875;SDS011;27555;50.808;4.402;2023-05-08T01:50:06;29.05;;;18.23;;
41875;SDS011;27555;50.808;4.402;2023-05-08T01:52:43;32.20;;;19.25;;
41875;SDS011;27555;50.808;4.402;2023-05-08T01:55:16;32.33;;;18.52;;
41875;SDS011;27555;50.808;4.402;2023-05-08T01:57:48;32.35;;;19.40;;
41875;SDS011;27555;50.808;4.402;2023-05-08T02:00:18;30.90;;;19.15;;
41875;SDS011;27555;50.808;4.402;2023-05-08T02:02:46;33.90;;;18.70;;
41875;SDS011;27555;50.808;4.402;2023-05-08T02:05:14;33.25;;;19.23;;
41875;SDS011;27555;50.808;4.402;2023-05-08T02:07:41;34.13;;;19.70;;
41875;SDS011;27555;50.808;4.402;2023-05-08T02:10:10;40.67;;;22.73;;
41875;SDS011;27555;50.808;4.402;2023-05-08T02:12:37;46.33;;;24.52;;
41875;SDS011;27555;50.808;4.402;2023-05-08T02:15:05;48.22;;;26.05;;
41875;SDS011;27555;50.808;4.402;2023-05-08T02:17:33;49.38;;;26.17;;
41875;SDS011;27555;50.808;4.402;2023-05-08T02:20:02;52.17;;;26.25;;
41875;SDS011;27555;50.808;4.402;2023-05-08T02:22:30;49.88;;;26.05;;
41875;SDS011;27555;50.808;4.402;2023-05-08T02:24:57;50.45;;;26.90;;
41875;SDS011;27555;50.808;4.402;2023-05-08T02:27:26;48.38;;;25.95;;
41875;SDS011;27555;50.808;4.402;2023-05-08T02:29:53;52.72;;;26.42;;
41875;SDS011;27555;50.808;4.402;2023-05-08T02:32:20;58.45;;;30.60;;
41875;SDS011;27555;50.808;4.402;2023-05-08T02:34:50;49.88;;;26.95;;
41875;SDS011;27555;50.808;4.402;2023-05-08T02:37:18;57.33;;;28.63;;
41875;SDS011;27555;50.808;4.402;2023-05-08T02:39:46;49.47;;;26.58;;
41875;SDS011;27555;50.808;4.402;2023-05-08T02:42:13;58.35;;;29.92;;
41875;SDS011;27555;50.808;4.402;2023-05-08T02:44:39;52.88;;;29.58;;
41875;SDS011;27555;50.808;4.402;2023-05-08T02:47:11;71.57;;;37.25;;
41875;SDS011;27555;50.808;4.402;2023-05-08T02:49:50;85.85;;;39.92;;
41875;SDS011;27555;50.808;4.402;2023-05-08T02:52:28;87.35;;;41.53;;
41875;SDS011;27555;50.808;4.402;2023-05-08T02:55:12;100.10;;;45.17;;
41875;SDS011;27555;50.808;4.402;2023-05-08T02:57:45;103.72;;;43.47;;
41875;SDS011;27555;50.808;4.402;2023-05-08T03:00:18;107.82;;;44.03;;
41875;SDS011;27555;50.808;4.402;2023-05-08T03:02:55;123.82;;;51.80;;
41875;SDS011;27555;50.808;4.402;2023-05-08T03:05:29;132.30;;;52.95;;
41875;SDS011;27555;50.808;4.402;2023-05-08T03:08:07;142.32;;;53.30;;
41875;SDS011;27555;50.808;4.402;2023-05-08T03:10:39;156.88;;;59.55;;
41875;SDS011;27555;50.808;4.402;2023-05-08T03:13:26;168.80;;;62.03;;
41875;SDS011;27555;50.808;4.402;2023-05-08T03:15:55;167.05;;;62.17;;
41875;SDS011;27555;50.808;4.402;2023-05-08T03:18:46;172.52;;;63.58;;
41875;SDS011;27555;50.808;4.402;2023-05-08T03:21:18;181.73;;;65.05;;
41875;SDS011;27555;50.808;4.402;2023-05-08T03:23:45;197.82;;;68.50;;
41875;SDS011;27555;50.808;4.402;2023-05-08T03:26:16;223.98;;;67.07;;
41875;SDS011;27555;50.808;4.402;2023-05-08T03:31:11;185.38;;;62.55;;
41875;SDS011;27555;50.808;4.402;2023-05-08T03:33:37;182.68;;;63.58;;
41875;SDS011;27555;50.808;4.402;2023-05-08T03:36:04;180.25;;;64.97;;
41875;SDS011;27555;50.808;4.402;2023-05-08T03:38:30;176.85;;;64.13;;
41875;SDS011;27555;50.808;4.402;2023-05-08T03:40:57;212.95;;;68.03;;
41875;SDS011;27555;50.808;4.402;2023-05-08T03:43:23;190.05;;;67.68;;
41875;SDS011;27555;50.808;4.402;2023-05-08T03:45:50;172.70;;;66.00;;
41875;SDS011;27555;50.808;4.402;2023-05-08T03:48:16;175.60;;;63.25;;
41875;SDS011;27555;50.808;4.402;2023-05-08T03:50:43;182.48;;;64.90;;
41875;SDS011;27555;50.808;4.402;2023-05-08T03:53:09;172.13;;;66.30;;
41875;SDS011;27555;50.808;4.402;2023-05-08T03:55:35;181.85;;;66.22;;
41875;SDS011;27555;50.808;4.402;2023-05-08T03:58:06;191.30;;;69.53;;
41875;SDS011;27555;50.808;4.402;2023-05-08T04:06:55;186.63;;;65.60;;
41875;SDS011;27555;50.808;4.402;2023-05-08T04:12:14;190.70;;;67.18;;
41875;SDS011;27555;50.808;4.402;2023-05-08T04:15:06;185.90;;;67.50;;
41875;SDS011;27555;50.808;4.402;2023-05-08T04:17:48;195.27;;;68.40;;
41875;SDS011;27555;50.808;4.402;2023-05-08T04:20:18;195.40;;;68.00;;
41875;SDS011;27555;50.808;4.402;2023-05-08T04:22:45;161.70;;;62.78;;
41875;SDS011;27555;50.808;4.402;2023-05-08T04:25:14;178.50;;;65.93;;
41875;SDS011;27555;50.808;4.402;2023-05-08T04:27:42;170.77;;;62.92;;
41875;SDS011;27555;50.808;4.402;2023-05-08T04:30:09;173.40;;;64.38;;
41875;SDS011;27555;50.808;4.402;2023-05-08T04:32:35;169.23;;;62.80;;
41875;SDS011;27555;50.808;4.402;2023-05-08T04:35:03;159.15;;;60.25;;
41875;SDS011;27555;50.808;4.402;2023-05-08T04:37:30;143.50;;;58.80;;
41875;SDS011;27555;50.808;4.402;2023-05-08T04:39:56;158.07;;;59.40;;
41875;SDS011;27555;50.808;4.402;2023-05-08T04:42:22;151.27;;;57.83;;
41875;SDS011;27555;50.808;4.402;2023-05-08T04:44:50;155.90;;;56.83;;
41875;SDS011;27555;50.808;4.402;2023-05-08T04:47:16;151.65;;;58.97;;
41875;SDS011;27555;50.808;4.402;2023-05-08T04:49:42;174.38;;;59.58;;
41875;SDS011;27555;50.808;4.402;2023-05-08T04:52:08;163.70;;;58.33;;
41875;SDS011;27555;50.808;4.402;2023-05-08T04:54:34;164.85;;;60.65;;
41875;SDS011;27555;50.808;4.402;2023-05-08T04:57:00;171.13;;;61.22;;
41875;SDS011;27555;50.808;4.402;2023-05-08T04:59:25;175.18;;;61.85;;
41875;SDS011;27555;50.808;4.402;2023-05-08T05:01:52;179.23;;;61.00;;
41875;SDS011;27555;50.808;4.402;2023-05-08T05:04:17;156.32;;;58.88;;
41875;SDS011;27555;50.808;4.402;2023-05-08T05:06:43;164.45;;;58.80;;
41875;SDS011;27555;50.808;4.402;2023-05-08T05:09:09;164.60;;;59.90;;
41875;SDS011;27555;50.808;4.402;2023-05-08T05:11:35;169.88;;;57.88;;
41875;SDS011;27555;50.808;4.402;2023-05-08T05:14:02;152.63;;;51.95;;
41875;SDS011;27555;50.808;4.402;2023-05-08T05:16:28;155.55;;;54.97;;
41875;SDS011;27555;50.808;4.402;2023-05-08T05:18:54;148.73;;;55.35;;
41875;SDS011;27555;50.808;4.402;2023-05-08T05:21:20;145.02;;;53.70;;
41875;SDS011;27555;50.808;4.402;2023-05-08T05:23:46;144.70;;;51.28;;
41875;SDS011;27555;50.808;4.402;2023-05-08T05:26:11;153.10;;;52.97;;
41875;SDS011;27555;50.808;4.402;2023-05-08T05:28:37;144.75;;;51.40;;
41875;SDS011;27555;50.808;4.402;2023-05-08T05:31:06;145.90;;;49.58;;
41875;SDS011;27555;50.808;4.402;2023-05-08T05:33:32;145.13;;;50.15;;
41875;SDS011;27555;50.808;4.402;2023-05-08T05:35:57;141.65;;;50.30;;
41875;SDS011;27555;50.808;4.402;2023-05-08T05:38:23;128.60;;;45.35;;
41875;SDS011;27555;50.808;4.402;2023-05-08T05:40:49;156.10;;;54.15;;
41875;SDS011;27555;50.808;4.402;2023-05-08T05:43:15;142.20;;;52.95;;
41875;SDS011;27555;50.808;4.402;2023-05-08T05:45:40;155.77;;;56.33;;
41875;SDS011;27555;50.808;4.402;2023-05-08T05:48:06;141.15;;;53.63;;
41875;SDS011;27555;50.808;4.402;2023-05-08T05:50:33;144.48;;;53.58;;
41875;SDS011;27555;50.808;4.402;2023-05-08T05:52:59;165.68;;;58.20;;
41875;SDS011;27555;50.808;4.402;2023-05-08T05:55:25;160.07;;;58.45;;
41875;SDS011;27555;50.808;4.402;2023-05-08T05:57:50;178.73;;;69.53;;
41875;SDS011;27555;50.808;4.402;2023-05-08T06:00:16;152.27;;;56.58;;
41875;SDS011;27555;50.808;4.402;2023-05-08T06:02:42;189.98;;;63.53;;
41875;SDS011;27555;50.808;4.402;2023-05-08T06:05:08;181.73;;;61.60;;
41875;SDS011;27555;50.808;4.402;2023-05-08T06:07:34;159.25;;;58.25;;
41875;SDS011;27555;50.808;4.402;2023-05-08T06:10:00;173.35;;;60.90;;
41875;SDS011;27555;50.808;4.402;2023-05-08T06:12:26;182.13;;;62.50;;
41875;SDS011;27555;50.808;4.402;2023-05-08T06:14:52;206.27;;;61.83;;
41875;SDS011;27555;50.808;4.402;2023-05-08T06:17:20;162.95;;;56.85;;
41875;SDS011;27555;50.808;4.402;2023-05-08T06:19:46;177.50;;;61.50;;
41875;SDS011;27555;50.808;4.402;2023-05-08T06:22:15;198.32;;;61.55;;
41875;SDS011;27555;50.808;4.402;2023-05-08T06:24:42;206.32;;;60.30;;
41875;SDS011;27555;50.808;4.402;2023-05-08T06:27:08;202.77;;;61.85;;
41875;SDS011;27555;50.808;4.402;2023-05-08T06:29:34;206.90;;;63.25;;
41875;SDS011;27555;50.808;4.402;2023-05-08T06:32:00;206.15;;;66.18;;
41875;SDS011;27555;50.808;4.402;2023-05-08T06:34:25;178.23;;;57.47;;
41875;SDS011;27555;50.808;4.402;2023-05-08T06:36:51;231.40;;;62.72;;
41875;SDS011;27555;50.808;4.402;2023-05-08T06:39:16;182.65;;;60.15;;
41875;SDS011;27555;50.808;4.402;2023-05-08T06:41:45;191.80;;;66.68;;
41875;SDS011;27555;50.808;4.402;2023-05-08T06:44:11;189.13;;;60.28;;
41875;SDS011;27555;50.808;4.402;2023-05-08T06:46:37;183.23;;;60.78;;
41875;SDS011;27555;50.808;4.402;2023-05-08T06:49:03;163.57;;;56.60;;
41875;SDS011;27555;50.808;4.402;2023-05-08T06:51:28;191.80;;;56.30;;
41875;SDS011;27555;50.808;4.402;2023-05-08T06:53:55;167.82;;;57.83;;
41875;SDS011;27555;50.808;4.402;2023-05-08T06:56:21;164.60;;;56.72;;
41875;SDS011;27555;50.808;4.402;2023-05-08T06:58:46;179.85;;;56.53;;
41875;SDS011;27555;50.808;4.402;2023-05-08T07:01:12;155.77;;;53.50;;
41875;SDS011;27555;50.808;4.402;2023-05-08T07:03:38;152.38;;;53.83;;
41875;SDS011;27555;50.808;4.402;2023-05-08T07:06:06;154.82;;;55.78;;
41875;SDS011;27555;50.808;4.402;2023-05-08T07:08:33;159.57;;;54.97;;
41875;SDS011;27555;50.808;4.402;2023-05-08T07:10:58;133.10;;;50.88;;
41875;SDS011;27555;50.808;4.402;2023-05-08T07:13:24;117.72;;;47.88;;
41875;SDS011;27555;50.808;4.402;2023-05-08T07:15:50;122.75;;;46.15;;
41875;SDS011;27555;50.808;4.402;2023-05-08T07:18:16;111.68;;;46.50;;
41875;SDS011;27555;50.808;4.402;2023-05-08T07:20:42;110.78;;;45.47;;
41875;SDS011;27555;50.808;4.402;2023-05-08T07:23:07;123.72;;;47.22;;
41875;SDS011;27555;50.808;4.402;2023-05-08T07:25:34;104.35;;;44.92;;
41875;SDS011;27555;50.808;4.402;2023-05-08T07:28:00;110.28;;;46.47;;
41875;SDS011;27555;50.808;4.402;2023-05-08T07:30:26;107.25;;;44.47;;
41875;SDS011;27555;50.808;4.402;2023-05-08T07:32:51;103.82;;;44.13;;
41875;SDS011;27555;50.808;4.402;2023-05-08T07:35:17;91.70;;;38.28;;
41875;SDS011;27555;50.808;4.402;2023-05-08T07:37:43;82.07;;;36.20;;
41875;SDS011;27555;50.808;4.402;2023-05-08T07:40:09;85.38;;;36.83;;
41875;SDS011;27555;50.808;4.402;2023-05-08T07:42:38;86.20;;;38.22;;
41875;SDS011;27555;50.808;4.402;2023-05-08T07:45:05;85.70;;;36.58;;
41875;SDS011;27555;50.808;4.402;2023-05-08T07:47:32;79.32;;;35.65;;
41875;SDS011;27555;50.808;4.402;2023-05-08T07:49:58;79.93;;;34.65;;
41875;SDS011;27555;50.808;4.402;2023-05-08T07:52:23;79.28;;;35.85;;
